sensor_id;sensor_type;location;lat;lon;timestamp;pressure;altitude;pressure_sealevel;temperature;humidity
69796;BME280;57073;45.650;9.612;2023-02-15T00:00:08;100625.50;;;7.96;50.65
69796;BME280;57073;45.650;9.612;2023-02-15T00:10:10;100619.31;;;7.55;51.28
69796;BME280;57073;45.650;9.612;2023-02-15T00:20:12;100623.13;;;7.44;52.22
69796;BME280;57073;45.650;9.612;2023-02-15T00:30:12;100622.28;;;7.43;51.90
69796;BME280;57073;45.650;9.612;2023-02-15T00:40:13;100608.88;;;7.19;51.56
69796;BME280;57073;45.650;9.612;2023-02-15T00:50:13;100609.94;;;7.42;50.85
69796;BME280;57073;45.650;9.612;2023-02-15T01:00:14;100618.66;;;7.69;50.49
69796;BME280;57073;45.650;9.612;2023-02-15T01:10:14;100610.78;;;7.59;50.40
69796;BME280;57073;45.650;9.612;2023-02-15T01:20:15;100613.16;;;7.71;49.63
69796;BME280;57073;45.650;9.612;2023-02-15T01:30:15;100611.47;;;7.86;49.98
69796;BME280;57073;45.650;9.612;2023-02-15T01:40:17;100606.63;;;7.81;50.01
69796;BME280;57073;45.650;9.612;2023-02-15T01:50:23;100592.19;;;7.25;51.97
69796;BME280;57073;45.650;9.612;2023-02-15T02:00:25;100586.38;;;7.29;51.11
69796;BME280;57073;45.650;9.612;2023-02-15T02:10:27;100582.44;;;6.91;53.25
69796;BME280;57073;45.650;9.612;2023-02-15T02:51:01;100575.16;;;6.32;53.55
69796;BME280;57073;45.650;9.612;2023-02-15T03:01:44;100567.41;;;6.21;54.22
69796;BME280;57073;45.650;9.612;2023-02-15T03:11:47;100558.94;;;6.00;54.33
69796;BME280;57073;45.650;9.612;2023-02-15T03:21:51;100558.44;;;6.22;54.97
69796;BME280;57073;45.650;9.612;2023-02-15T03:32:00;100551.84;;;6.08;54.96
69796;BME280;57073;45.650;9.612;2023-02-15T03:42:40;100544.63;;;6.27;53.70
69796;BME280;57073;45.650;9.612;2023-02-15T03:52:41;100542.09;;;6.25;54.03
69796;BME280;57073;45.650;9.612;2023-02-15T04:13:21;100533.78;;;5.76;55.27
69796;BME280;57073;45.650;9.612;2023-02-15T04:23:22;100532.78;;;5.77;54.50
69796;BME280;57073;45.650;9.612;2023-02-15T04:33:41;100535.00;;;5.64;54.76
69796;BME280;57073;45.650;9.612;2023-02-15T04:43:43;100527.34;;;5.61;54.89
69796;BME280;57073;45.650;9.612;2023-02-15T04:53:44;100512.94;;;5.71;55.38
69796;BME280;57073;45.650;9.612;2023-02-15T05:03:44;100521.84;;;5.80;54.24
69796;BME280;57073;45.650;9.612;2023-02-15T05:13:44;100516.94;;;5.93;53.33
69796;BME280;57073;45.650;9.612;2023-02-15T05:23:45;100505.34;;;5.76;53.79
69796;BME280;57073;45.650;9.612;2023-02-15T05:33:45;100504.03;;;5.81;52.99
69796;BME280;57073;45.650;9.612;2023-02-15T05:43:46;100505.84;;;5.80;52.74
69796;BME280;57073;45.650;9.612;2023-02-15T05:53:46;100510.84;;;5.83;52.71
69796;BME280;57073;45.650;9.612;2023-02-15T06:03:46;100504.34;;;5.60;53.57
69796;BME280;57073;45.650;9.612;2023-02-15T06:13:47;100523.75;;;5.70;53.96
69796;BME280;57073;45.650;9.612;2023-02-15T06:23:47;100530.25;;;5.49;53.79
69796;BME280;57073;45.650;9.612;2023-02-15T06:33:47;100546.44;;;5.56;53.35
69796;BME280;57073;45.650;9.612;2023-02-15T06:43:48;100562.25;;;5.75;53.20
69796;BME280;57073;45.650;9.612;2023-02-15T06:53:48;100567.31;;;6.05;52.72
69796;BME280;57073;45.650;9.612;2023-02-15T07:03:49;100585.50;;;6.09;51.29
69796;BME280;57073;45.650;9.612;2023-02-15T07:13:50;100586.41;;;6.52;50.85
69796;BME280;57073;45.650;9.612;2023-02-15T07:23:50;100579.97;;;6.63;50.66
69796;BME280;57073;45.650;9.612;2023-02-15T07:33:50;100593.22;;;7.40;49.19
69796;BME280;57073;45.650;9.612;2023-02-15T07:43:51;100592.19;;;8.32;46.29
69796;BME280;57073;45.650;9.612;2023-02-15T07:53:51;100588.59;;;9.43;45.77
69796;BME280;57073;45.650;9.612;2023-02-15T08:03:53;100584.84;;;10.13;44.10
69796;BME280;57073;45.650;9.612;2023-02-15T08:14:14;100581.94;;;10.68;44.00
69796;BME280;57073;45.650;9.612;2023-02-15T08:24:17;100574.19;;;11.31;42.89
69796;BME280;57073;45.650;9.612;2023-02-15T08:34:20;100570.44;;;11.90;41.51
69796;BME280;57073;45.650;9.612;2023-02-15T08:44:21;100568.34;;;12.42;41.38
69796;BME280;57073;45.650;9.612;2023-02-15T08:54:22;100571.28;;;12.95;40.58
69796;BME280;57073;45.650;9.612;2023-02-15T09:04:23;100567.50;;;13.31;39.75
69796;BME280;57073;45.650;9.612;2023-02-15T09:14:23;100562.38;;;13.56;38.21
69796;BME280;57073;45.650;9.612;2023-02-15T09:24:25;100557.59;;;13.72;38.38
69796;BME280;57073;45.650;9.612;2023-02-15T09:34:25;100556.97;;;13.63;37.17
69796;BME280;57073;45.650;9.612;2023-02-15T09:55:33;100548.44;;;13.46;38.90
69796;BME280;57073;45.650;9.612;2023-02-15T10:06:05;100541.59;;;13.37;38.93
69796;BME280;57073;45.650;9.612;2023-02-15T10:16:21;100539.09;;;13.42;39.21
69796;BME280;57073;45.650;9.612;2023-02-15T10:26:46;100539.34;;;13.47;40.41
69796;BME280;57073;45.650;9.612;2023-02-15T10:47:46;100526.03;;;13.52;39.77
69796;BME280;57073;45.650;9.612;2023-02-15T11:08:11;100503.44;;;13.60;39.35
69796;BME280;57073;45.650;9.612;2023-02-15T11:18:21;100487.88;;;13.69;38.69
69796;BME280;57073;45.650;9.612;2023-02-15T11:28:30;100471.47;;;13.77;38.45
69796;BME280;57073;45.650;9.612;2023-02-15T11:38:33;100454.22;;;13.85;38.97
69796;BME280;57073;45.650;9.612;2023-02-15T11:48:34;100453.81;;;13.94;39.14
69796;BME280;57073;45.650;9.612;2023-02-15T11:58:46;100436.75;;;14.00;39.10
69796;BME280;57073;45.650;9.612;2023-02-15T12:08:54;100428.44;;;14.09;38.67
69796;BME280;57073;45.650;9.612;2023-02-15T12:18:57;100408.09;;;14.13;38.83
69796;BME280;57073;45.650;9.612;2023-02-15T12:29:02;100397.28;;;14.19;38.85
69796;BME280;57073;45.650;9.612;2023-02-15T12:49:19;100367.50;;;14.33;37.80
69796;BME280;57073;45.650;9.612;2023-02-15T12:59:20;100353.78;;;14.34;37.90
69796;BME280;57073;45.650;9.612;2023-02-15T13:09:39;100343.16;;;14.40;36.57
69796;BME280;57073;45.650;9.612;2023-02-15T13:19:46;100337.25;;;14.56;36.45
69796;BME280;57073;45.650;9.612;2023-02-15T13:29:54;100325.59;;;14.62;37.65
69796;BME280;57073;45.650;9.612;2023-02-15T13:40:03;100326.63;;;14.61;38.08
69796;BME280;57073;45.650;9.612;2023-02-15T13:50:15;100321.84;;;14.63;37.94
69796;BME280;57073;45.650;9.612;2023-02-15T14:00:44;100307.28;;;14.64;37.68
69796;BME280;57073;45.650;9.612;2023-02-15T14:11:12;100298.53;;;14.69;38.18
69796;BME280;57073;45.650;9.612;2023-02-15T14:21:24;100295.16;;;14.73;37.69
69796;BME280;57073;45.650;9.612;2023-02-15T14:31:32;100295.63;;;14.70;38.50
69796;BME280;57073;45.650;9.612;2023-02-15T14:41:48;100289.31;;;14.76;38.50
69796;BME280;57073;45.650;9.612;2023-02-15T14:51:54;100289.53;;;14.75;37.81
69796;BME280;57073;45.650;9.612;2023-02-15T15:02:20;100277.53;;;14.71;38.75
69796;BME280;57073;45.650;9.612;2023-02-15T15:22:25;100276.75;;;14.64;39.04
69796;BME280;57073;45.650;9.612;2023-02-15T15:32:31;100285.28;;;14.61;38.67
69796;BME280;57073;45.650;9.612;2023-02-15T15:42:50;100285.53;;;14.52;37.58
69796;BME280;57073;45.650;9.612;2023-02-15T15:52:57;100288.06;;;14.47;38.80
69796;BME280;57073;45.650;9.612;2023-02-15T16:02:58;100288.31;;;14.39;38.58
69796;BME280;57073;45.650;9.612;2023-02-15T16:13:00;100287.09;;;14.35;38.76
69796;BME280;57073;45.650;9.612;2023-02-15T16:23:25;100271.38;;;14.25;38.37
69796;BME280;57073;45.650;9.612;2023-02-15T16:33:39;100277.03;;;14.17;39.13
69796;BME280;57073;45.650;9.612;2023-02-15T16:43:42;100282.50;;;14.04;38.73
69796;BME280;57073;45.650;9.612;2023-02-15T16:53:46;100292.13;;;13.86;39.60
69796;BME280;57073;45.650;9.612;2023-02-15T17:03:48;100297.81;;;13.65;39.62
69796;BME280;57073;45.650;9.612;2023-02-15T17:24:16;100316.75;;;13.18;41.55
69796;BME280;57073;45.650;9.612;2023-02-15T17:44:49;100343.72;;;12.84;46.71
69796;BME280;57073;45.650;9.612;2023-02-15T17:54:49;100344.72;;;12.63;45.92
69796;BME280;57073;45.650;9.612;2023-02-15T18:05:15;100353.56;;;12.37;45.75
69796;BME280;57073;45.650;9.612;2023-02-15T18:15:34;100353.53;;;12.24;43.88
69796;BME280;57073;45.650;9.612;2023-02-15T18:25:34;100362.44;;;12.24;43.98
69796;BME280;57073;45.650;9.612;2023-02-15T18:35:35;100360.63;;;12.38;43.88
69796;BME280;57073;45.650;9.612;2023-02-15T18:45:36;100381.75;;;12.41;44.21
69796;BME280;57073;45.650;9.612;2023-02-15T18:55:37;100388.13;;;12.34;45.37
69796;BME280;57073;45.650;9.612;2023-02-15T19:05:40;100393.94;;;12.37;47.55
69796;BME280;57073;45.650;9.612;2023-02-15T19:15:40;100389.09;;;12.13;49.29
69796;BME280;57073;45.650;9.612;2023-02-15T19:25:41;100396.22;;;11.92;49.88
69796;BME280;57073;45.650;9.612;2023-02-15T19:35:42;100404.22;;;11.85;49.83
69796;BME280;57073;45.650;9.612;2023-02-15T19:45:44;100403.66;;;11.62;50.13
69796;BME280;57073;45.650;9.612;2023-02-15T19:55:45;100404.75;;;11.39;50.12
69796;BME280;57073;45.650;9.612;2023-02-15T20:05:46;100405.69;;;10.82;52.01
69796;BME280;57073;45.650;9.612;2023-02-15T20:15:47;100415.03;;;10.64;52.94
69796;BME280;57073;45.650;9.612;2023-02-15T20:25:49;100418.31;;;10.15;52.87
69796;BME280;57073;45.650;9.612;2023-02-15T20:35:50;100416.13;;;9.89;53.19
69796;BME280;57073;45.650;9.612;2023-02-15T20:45:50;100409.56;;;9.62;53.52
69796;BME280;57073;45.650;9.612;2023-02-15T20:55:51;100414.09;;;9.61;53.12
69796;BME280;57073;45.650;9.612;2023-02-15T21:05:51;100413.50;;;9.51;52.66
69796;BME280;57073;45.650;9.612;2023-02-15T21:15:53;100421.84;;;9.56;52.26
69796;BME280;57073;45.650;9.612;2023-02-15T21:25:54;100415.06;;;9.30;54.35
69796;BME280;57073;45.650;9.612;2023-02-15T21:35:56;100422.53;;;9.12;54.66
69796;BME280;57073;45.650;9.612;2023-02-15T21:45:57;100427.75;;;8.90;54.47
69796;BME280;57073;45.650;9.612;2023-02-15T21:56:20;100424.47;;;8.80;54.83
69796;BME280;57073;45.650;9.612;2023-02-15T22:06:21;100431.78;;;8.86;54.81
69796;BME280;57073;45.650;9.612;2023-02-15T22:16:21;100422.16;;;8.77;54.39
69796;BME280;57073;45.650;9.612;2023-02-15T22:26:23;100434.75;;;8.91;54.78
69796;BME280;57073;45.650;9.612;2023-02-15T22:36:28;100436.59;;;8.68;54.58
69796;BME280;57073;45.650;9.612;2023-02-15T22:46:29;100434.94;;;8.90;51.41
69796;BME280;57073;45.650;9.612;2023-02-15T22:56:51;100439.13;;;8.61;51.96
69796;BME280;57073;45.650;9.612;2023-02-15T23:06:52;100441.78;;;8.69;53.03
69796;BME280;57073;45.650;9.612;2023-02-15T23:16:54;100435.06;;;8.34;53.45
69796;BME280;57073;45.650;9.612;2023-02-15T23:26:55;100441.13;;;8.19;53.48
69796;BME280;57073;45.650;9.612;2023-02-15T23:37:17;100424.88;;;7.98;53.38
69796;BME280;57073;45.650;9.612;2023-02-15T23:57:19;100426.22;;;7.85;53.88
